Aeroporto :
LOGIN :

Iscrizione | Disclaimer

   EN    FR    IT 

 










Sommario :    VFR   VFR Marginale   IFR   IFR Intensivo   IFR Molto Intensivo
Visibilità : 
Base nubi : 
>= 8 km
>= 3000ft
5 / 8 km
1000 / 3000 ft
1500m / 5 km
500 / 1000 ft
800 / 1500m
200 / 500 ft
< 800m
< 200 ft
Simboli :   Temporali  Nebbia  Neve Forte  Precipitazioni Forti  Vento > 20 kt
SIGMETs :   Varie  Temporali  Ghiacco  Turbolenza  Onda orograficha  Ceneri Vulcaniche






- Altitudine del aeroporto : 1306 ft
- Codice IATA : ACH


LSZR - Alten Rhein

ULTIMO METAR :
  • 220020Z AUTO VRB02KT 7000 -RASN SCT005 BKN007 BKN010 02/01 Q1019 RESN

METARs OBSOLETI :
  • 212350Z AUTO VRB02KT 8000 -SN OVC005 01/01 Q1019 RERASN
  • 212320Z AUTO VRB02KT 6000 RASN OVC008 02/01 Q1019 RESN
  • 212250Z AUTO 27006KT 220V290 8000 RA FEW010 OVC013 OVC015 02/01 Q1019 RERASN
  • 212220Z AUTO VRB03KT 9999 -DZ FEW011 OVC016 03/01 Q1019 RERASN
  • 212150Z AUTO VRB02KT 9999 -RA BKN020 02/02 Q1020 RERASN
  • 212120Z AUTO VRB02KT 9999 SCT045 BKN050 02/01 Q1020
  • 212050Z AUTO VRB03KT 9999 FEW044 SCT055 BKN075 02/01 Q1020
  • 212020Z AUTO VRB02KT 9999 SCT011 BKN013 BKN095 02/01 Q1019
  • 211950Z AUTO 23002KT 9999 FEW060 BKN100 02/01 Q1019

Previsioni scadute.
ATIS : +41 71 858 51 66



MetMap, La meteo Aeronautica in un colpo d'occhio ! - Copyright ORBIFLY Dicembre 2007 - Disclaimer

ORBIFLY MET'MAP TEAM :

Programmazione e sviluppo : Alexandra Zaïnal
Concezione : Baudouin d'Aumeries
Supporto tecnico e logistico : Manuel Goepfert
Aiuto : Marc-Olivier Méhu
Aiuto per la traduzione : Arnaldo La Scala




FONTI E CREDITI :

   NOAA